Guaymas, Mexico

5:43 PM MST on October 22, 2014 (GMT -0700)
Gen Jose Ma Yanez International | Change Station
CLOSE
Current Station
Airport
Location: Guaymas,
Elevation: 89 ft
Nearby Weather Stations

Elev 89 ft 27.97 °N, 110.93 °W | Updated 52 minutes ago

Clear
Clear
86 °F
Feels Like 92 °F
N
13
Wind Variable Wind from SSW

Today
High -- | Low -- °F
--% Chance of Precip.
Yesterday
High -- | Low -- °F
Precip. -- in
6:28 AM 5:47 PM
Waning Crescent, 1% visible
Pressure 29.74 in
Visibility 10.0 miles
Clouds Clear
Heat Index 92 °F
Dew Point 72 °F
Humidity 62%
Rainfall 0.00 in
Snow Depth Not available.
UV 1 out of 12
Pollen Not available.
Air Quality Not available.
Flu Activity Not available.
METAR MMGM 222351Z 20011KT 10SM SKC 30/22 A2974

More Conditions Fewer Conditions

Pressure 29.74 in
Visibility 10.0 miles
Clouds Clear
Heat Index 92 °F
Dew Point 72 °F
Humidity 62%
Rainfall 0.00 in
Snow Depth Not available.
UV 1 out of 12
Pollen Not available.
Air Quality Not available.
Flu Activity Not available.
METAR MMGM 222351Z 20011KT 10SM SKC 30/22 A2974

More Conditions Fewer Conditions

10-Day Weather Forecast

Almanac

Astronomy

Oct. 22, 2014 Rise Set
Actual Time 6:28 AM MST 5:47 PM MST
Civil Twilight 6:04 AM MST 6:11 PM MST
Nautical Twilight 5:37 AM MST 6:38 PM MST
Astronomical Twilight 5:09 AM MST 7:06 PM MST
Moon 5:19 AM MST (10/22) 5:12 PM MST (10/22)
Length of Visible Light 12h 06m
Length of Day
11h 19m
Tomorrow will be 1m 32s shorter.
Waning Crescent, 1% of the Moon is Illuminated
Today
Waning Crescent
Oct 23
New
Oct 30
First Quarter
Nov 6
Full
Nov 14
Last Quarter

Today's Extremes

Country Highs Country Lows

Community

WunderPhotos

Upload Photos

1,764,098 photos uploaded!

WunderBlogs® & News

Nearby

Snow Depth

Not available.

Earthquake Activity

City Distance Mag. Time & Date
No recent earthquake activity has been reported nearby.
Minimum magnitude displayed is 2.5.

Coastal Water Temperatures

Place Temperature
No Stations Reporting

Nearby Weather Stations